Time;durP1;ratioP1;P1;durP2;ratioP2;P2;SDS_P1;SDS_P2;PMS_P1;PMS_P2;Temp;Humidity;BMP_temperature;BMP_pressure;BME280_temperature;BME280_humidity;BME280_pressure;Samples;Min_cycle;Max_cycle;Signal;HPM_P1;HPM_P2
2022/05/12 00:00:32;;;;;;;15.50;2.50;;;;;;;;;;5027805;28;97415;-75
2022/05/12 00:02:58;;;;;;;12.27;2.38;;;;;;;;;;5028197;28;95314;-75
2022/05/12 00:05:25;;;;;;;10.85;2.20;;;;;;;;;;5030489;28;97095;-75
2022/05/12 00:07:51;;;;;;;11.93;2.15;;;;;;;;;;5028408;27;95503;-75
2022/05/12 00:10:19;;;;;;;14.00;2.42;;;;;;;;;;5028741;27;96776;-76
2022/05/12 00:12:46;;;;;;;10.80;2.30;;;;;;;;;;5030668;28;97366;-77
2022/05/12 00:15:19;;;;;;;17.30;2.78;;;;;;;;;;5031563;27;95663;-76
2022/05/12 00:17:45;;;;;;;9.63;2.03;;;;;;;;;;5031584;28;96970;-76
2022/05/12 00:20:13;;;;;;;14.07;2.55;;;;;;;;;;5031115;28;97415;-75
2022/05/12 00:22:39;;;;;;;12.98;2.63;;;;;;;;;;5031500;27;95303;-77
2022/05/12 00:25:09;;;;;;;9.15;2.03;;;;;;;;;;5029681;27;97125;-76
2022/05/12 00:27:36;;;;;;;16.25;2.00;;;;;;;;;;5034379;27;97321;-75
2022/05/12 00:30:05;;;;;;;16.88;2.20;;;;;;;;;;5030807;28;96592;-76
2022/05/12 00:32:31;;;;;;;10.27;2.20;;;;;;;;;;5030981;28;97353;-76
2022/05/12 00:34:57;;;;;;;15.07;2.42;;;;;;;;;;5030711;27;96876;-76
2022/05/12 00:37:24;;;;;;;11.02;2.25;;;;;;;;;;5030523;27;96395;-75
2022/05/12 00:39:50;;;;;;;15.02;2.53;;;;;;;;;;5031600;28;97635;-75
2022/05/12 00:42:17;;;;;;;13.40;2.67;;;;;;;;;;5030745;27;95688;-76
2022/05/12 00:44:43;;;;;;;9.65;2.33;;;;;;;;;;5031137;28;97255;-76
2022/05/12 00:47:09;;;;;;;7.13;2.03;;;;;;;;;;5029506;28;97447;-76
2022/05/12 00:49:37;;;;;;;11.60;2.50;;;;;;;;;;5033942;27;95440;-76
2022/05/12 00:52:07;;;;;;;13.55;2.65;;;;;;;;;;5030704;27;97378;-75
2022/05/12 00:54:44;;;;;;;11.10;2.50;;;;;;;;;;5030784;27;95686;-77
2022/05/12 00:57:12;;;;;;;10.63;2.50;;;;;;;;;;5030714;27;96812;-76
2022/05/12 00:59:38;;;;;;;11.48;2.30;;;;;;;;;;5030149;28;97729;-76
2022/05/12 01:02:08;;;;;;;14.45;2.47;;;;;;;;;;5030495;27;95238;-76
2022/05/12 01:04:35;;;;;;;11.63;2.70;;;;;;;;;;5030847;28;97080;-76
2022/05/12 01:07:01;;;;;;;10.70;2.63;;;;;;;;;;5030375;27;97797;-75
2022/05/12 01:09:29;;;;;;;12.60;2.63;;;;;;;;;;5031202;28;95278;-76
2022/05/12 01:11:55;;;;;;;10.38;2.78;;;;;;;;;;5033976;27;96775;-76
2022/05/12 01:14:22;;;;;;;20.38;3.72;;;;;;;;;;5031122;27;95192;-76
2022/05/12 01:16:53;;;;;;;13.68;3.00;;;;;;;;;;5032568;27;96910;-76
2022/05/12 01:19:23;;;;;;;11.20;3.10;;;;;;;;;;5029824;28;98071;-76
2022/05/12 01:21:50;;;;;;;16.60;2.92;;;;;;;;;;5030588;27;96231;-76
2022/05/12 01:24:17;;;;;;;13.88;3.20;;;;;;;;;;5030144;28;96986;-76
2022/05/12 01:26:44;;;;;;;12.15;2.33;;;;;;;;;;5029698;28;97263;-75
2022/05/12 01:29:11;;;;;;;13.45;3.03;;;;;;;;;;5030850;27;95513;-75
2022/05/12 01:31:37;;;;;;;13.70;2.95;;;;;;;;;;5030138;28;97258;-76
2022/05/12 01:34:05;;;;;;;16.63;3.15;;;;;;;;;;5033404;27;97335;-75
2022/05/12 01:36:32;;;;;;;21.38;2.92;;;;;;;;;;5030293;28;96691;-76
2022/05/12 01:38:59;;;;;;;11.10;2.72;;;;;;;;;;5029296;28;97420;-76
2022/05/12 01:41:25;;;;;;;10.27;2.95;;;;;;;;;;5029624;27;95384;-76
2022/05/12 01:43:51;;;;;;;10.43;2.90;;;;;;;;;;5030153;28;96834;-76
2022/05/12 01:46:18;;;;;;;13.05;3.10;;;;;;;;;;5029430;28;97147;-76
2022/05/12 01:48:44;;;;;;;16.15;2.83;;;;;;;;;;5030011;28;95775;-76
2022/05/12 01:51:11;;;;;;;10.45;2.63;;;;;;;;;;5030286;28;96795;-75
2022/05/12 01:53:37;;;;;;;13.55;3.17;;;;;;;;;;5031882;28;97392;-75
2022/05/12 01:56:04;;;;;;;26.02;3.33;;;;;;;;;;5029612;27;96734;-76
2022/05/12 01:58:30;;;;;;;12.18;3.28;;;;;;;;;;5029390;28;97248;-75
2022/05/12 02:00:57;;;;;;;8.30;2.63;;;;;;;;;;5030017;28;95411;-75
2022/05/12 02:03:23;;;;;;;12.07;3.33;;;;;;;;;;5029874;28;97149;-75
2022/05/12 02:05:50;;;;;;;13.85;3.67;;;;;;;;;;5029620;28;97553;-75
2022/05/12 02:08:17;;;;;;;16.95;3.88;;;;;;;;;;5029091;27;95512;-75
2022/05/12 02:10:47;;;;;;;11.43;3.17;;;;;;;;;;5028922;27;95827;-75
2022/05/12 02:13:15;;;;;;;18.65;3.70;;;;;;;;;;5029606;27;96421;-75
2022/05/12 02:15:41;;;;;;;10.90;3.35;;;;;;;;;;5032271;27;95658;-75
2022/05/12 02:18:08;;;;;;;9.85;3.13;;;;;;;;;;5029604;28;97572;-75
2022/05/12 02:20:35;;;;;;;15.05;3.50;;;;;;;;;;5029770;27;95384;-76
2022/05/12 02:23:01;;;;;;;19.05;3.75;;;;;;;;;;5029357;27;95871;-75
2022/05/12 02:25:28;;;;;;;16.10;4.30;;;;;;;;;;5029475;28;97358;-76
2022/05/12 02:27:55;;;;;;;14.82;3.75;;;;;;;;;;5029742;27;97125;-76
2022/05/12 02:30:24;;;;;;;19.33;4.70;;;;;;;;;;5029344;28;95423;-76
2022/05/12 02:32:51;;;;;;;13.63;4.43;;;;;;;;;;5028438;28;97388;-75
2022/05/12 02:35:17;;;;;;;19.30;4.88;;;;;;;;;;5029229;27;95496;-74
2022/05/12 02:37:44;;;;;;;12.70;4.88;;;;;;;;;;5031940;28;96865;-76
2022/05/12 02:40:12;;;;;;;13.65;4.93;;;;;;;;;;5029829;28;95610;-76
2022/05/12 02:42:38;;;;;;;28.10;5.45;;;;;;;;;;5029204;28;97037;-75
2022/05/12 02:45:05;;;;;;;17.83;5.38;;;;;;;;;;5028821;28;97312;-75
2022/05/12 02:47:32;;;;;;;17.23;5.05;;;;;;;;;;5028676;27;95759;-76
2022/05/12 02:49:59;;;;;;;16.70;5.60;;;;;;;;;;5029656;27;95174;-76
2022/05/12 02:52:25;;;;;;;16.77;6.20;;;;;;;;;;5028572;28;97707;-76
2022/05/12 02:54:51;;;;;;;22.27;6.50;;;;;;;;;;5029432;28;95478;-75
2022/05/12 02:57:18;;;;;;;17.88;6.53;;;;;;;;;;5029021;28;96510;-76
2022/05/12 02:59:44;;;;;;;16.73;6.68;;;;;;;;;;5030399;28;97774;-76
2022/05/12 03:02:11;;;;;;;20.90;6.68;;;;;;;;;;5028862;28;96876;-76
2022/05/12 03:04:37;;;;;;;18.05;7.38;;;;;;;;;;5029104;27;97378;-75
2022/05/12 03:07:03;;;;;;;18.55;7.57;;;;;;;;;;5028689;28;96277;-76
2022/05/12 03:09:30;;;;;;;18.10;7.47;;;;;;;;;;5028270;27;96686;-76
2022/05/12 03:11:56;;;;;;;14.25;7.40;;;;;;;;;;5028365;27;96386;-75
2022/05/12 03:14:22;;;;;;;20.42;8.18;;;;;;;;;;5028646;27;95411;-75
2022/05/12 03:16:53;;;;;;;17.90;7.80;;;;;;;;;;5029214;28;96903;-75
2022/05/12 03:19:21;;;;;;;18.45;8.40;;;;;;;;;;5027691;27;96246;-75
2022/05/12 03:21:47;;;;;;;19.70;9.20;;;;;;;;;;5031717;27;95619;-76
2022/05/12 03:24:18;;;;;;;17.48;8.23;;;;;;;;;;5028539;28;97196;-75
2022/05/12 03:26:45;;;;;;;21.57;8.80;;;;;;;;;;5031305;28;95356;-75
2022/05/12 03:29:11;;;;;;;16.27;9.07;;;;;;;;;;5028325;28;96662;-75
2022/05/12 03:31:38;;;;;;;17.02;8.88;;;;;;;;;;5028399;28;97313;-75
2022/05/12 03:34:05;;;;;;;17.60;9.90;;;;;;;;;;5028829;27;95758;-75
2022/05/12 03:36:35;;;;;;;18.10;9.10;;;;;;;;;;5028824;28;97382;-75
2022/05/12 03:39:05;;;;;;;15.55;8.82;;;;;;;;;;5028394;28;97755;-75
2022/05/12 03:41:31;;;;;;;16.25;9.18;;;;;;;;;;5028139;28;96499;-76
2022/05/12 03:46:42;;;;;;;21.05;9.65;;;;;;;;;;5031428;28;95324;-75
2022/05/12 03:49:09;;;;;;;20.45;9.25;;;;;;;;;;5031958;27;97141;-75
2022/05/12 03:51:35;;;;;;;17.15;9.10;;;;;;;;;;5031474;27;96236;-75
2022/05/12 03:54:03;;;;;;;17.33;9.27;;;;;;;;;;5031795;27;96607;-75
2022/05/12 03:56:31;;;;;;;17.73;9.10;;;;;;;;;;5013563;28;95864;-75
2022/05/12 03:59:01;;;;;;;15.20;8.80;;;;;;;;;;5018070;27;97637;-75
2022/05/12 04:01:27;;;;;;;14.88;7.53;;;;;;;;;;5030766;27;95547;-75
2022/05/12 04:03:54;;;;;;;13.93;8.32;;;;;;;;;;5035582;28;97169;-75
2022/05/12 04:06:20;;;;;;;16.38;8.82;;;;;;;;;;5032180;28;96770;-75
2022/05/12 04:08:46;;;;;;;18.48;8.95;;;;;;;;;;5031366;27;95944;-75
2022/05/12 04:11:13;;;;;;;15.07;8.00;;;;;;;;;;5030646;28;97417;-75
2022/05/12 04:13:41;;;;;;;13.73;8.55;;;;;;;;;;5031746;27;96085;-76
2022/05/12 04:16:08;;;;;;;15.98;8.73;;;;;;;;;;5031688;28;96815;-75
2022/05/12 04:18:34;;;;;;;15.30;9.13;;;;;;;;;;5031580;28;97380;-75
2022/05/12 04:21:00;;;;;;;17.90;8.18;;;;;;;;;;5030804;27;95680;-75
2022/05/12 04:23:27;;;;;;;16.80;8.65;;;;;;;;;;5031383;28;96746;-75
2022/05/12 04:25:59;;;;;;;14.48;7.68;;;;;;;;;;5034672;28;97485;-75
2022/05/12 04:28:26;;;;;;;19.67;8.23;;;;;;;;;;5031936;27;96746;-76
2022/05/12 04:30:52;;;;;;;14.13;7.97;;;;;;;;;;5030793;27;97446;-75
2022/05/12 04:36:17;;;;;;;16.77;8.70;;;;;;;;;;4997628;28;96979;-75
2022/05/12 04:38:43;;;;;;;15.88;8.25;;;;;;;;;;5011347;28;96171;-75
2022/05/12 04:41:10;;;;;;;19.95;8.13;;;;;;;;;;5024229;28;95726;-75
2022/05/12 04:43:36;;;;;;;13.10;8.00;;;;;;;;;;5030746;28;96746;-75
2022/05/12 04:46:02;;;;;;;13.98;8.07;;;;;;;;;;5031359;27;97312;-76
2022/05/12 04:48:31;;;;;;;15.65;8.82;;;;;;;;;;5034565;27;95659;-75
2022/05/12 04:50:58;;;;;;;12.02;7.53;;;;;;;;;;5029934;27;97215;-75
2022/05/12 04:53:25;;;;;;;15.15;8.43;;;;;;;;;;5030872;27;95845;-75
2022/05/12 04:55:52;;;;;;;15.32;7.35;;;;;;;;;;5030877;27;97230;-75
2022/05/12 04:58:18;;;;;;;14.15;7.18;;;;;;;;;;5030226;28;97172;-76
2022/05/12 05:00:44;;;;;;;16.80;8.15;;;;;;;;;;5030958;28;95536;-76
2022/05/12 05:03:11;;;;;;;18.95;7.50;;;;;;;;;;5030823;27;95796;-77
2022/05/12 19:44:03;;;;;;;10.98;1.48;;;;;;;;;;5023613;27;96107;-75
2022/05/12 19:46:30;;;;;;;9.68;1.60;;;;;;;;;;5025192;27;95437;-75
2022/05/12 19:48:57;;;;;;;6.63;1.85;;;;;;;;;;5025430;28;96777;-74
2022/05/12 19:51:23;;;;;;;17.48;2.25;;;;;;;;;;5024942;28;97342;-76
2022/05/12 19:53:49;;;;;;;8.30;1.75;;;;;;;;;;5025255;28;96286;-76
2022/05/12 19:56:33;;;;;;;14.35;1.60;;;;;;;;;;5013814;28;95333;-76
2022/05/12 19:59:18;;;;;;;5.25;1.63;;;;;;;;;;5022033;28;97197;-75
2022/05/12 20:01:50;;;;;;;9.30;1.70;;;;;;;;;;5026790;28;95184;-77
2022/05/12 20:04:19;;;;;;;3.42;1.45;;;;;;;;;;5024447;27;96918;-75
2022/05/12 20:06:45;;;;;;;6.70;1.48;;;;;;;;;;5024871;28;95443;-76
2022/05/12 20:09:12;;;;;;;5.97;1.50;;;;;;;;;;5025650;28;96583;-83
2022/05/12 20:11:39;;;;;;;4.90;1.60;;;;;;;;;;5024484;28;96714;-77
2022/05/12 20:14:05;;;;;;;4.72;1.35;;;;;;;;;;5023962;28;95669;-76
2022/05/12 20:16:32;;;;;;;6.72;1.70;;;;;;;;;;5023370;27;96712;-75
2022/05/12 20:19:17;;;;;;;8.10;1.70;;;;;;;;;;5016733;28;97789;-75
2022/05/12 20:21:43;;;;;;;5.95;1.50;;;;;;;;;;5020547;27;96187;-75
2022/05/12 20:24:12;;;;;;;6.47;1.77;;;;;;;;;;5028732;27;96063;-76
2022/05/12 20:26:39;;;;;;;3.78;1.35;;;;;;;;;;5024237;28;95423;-76
2022/05/12 20:29:06;;;;;;;6.63;1.60;;;;;;;;;;5024061;28;97105;-76
2022/05/12 20:31:49;;;;;;;6.63;1.40;;;;;;;;;;5025646;28;95603;-76
2022/05/12 20:34:39;;;;;;;10.32;1.98;;;;;;;;;;5023104;28;95705;-76
2022/05/12 20:37:10;;;;;;;4.40;1.13;;;;;;;;;;5026140;28;97000;-76
2022/05/12 20:39:44;;;;;;;4.40;1.35;;;;;;;;;;5024797;28;96679;-76
2022/05/12 20:42:10;;;;;;;4.25;1.40;;;;;;;;;;5025215;28;96022;-75
2022/05/12 20:44:37;;;;;;;6.57;1.52;;;;;;;;;;5025670;28;96812;-76
2022/05/12 20:47:03;;;;;;;3.85;1.40;;;;;;;;;;5028167;27;96246;-76
2022/05/12 20:49:30;;;;;;;4.18;1.30;;;;;;;;;;5024341;28;96742;-76
2022/05/12 20:51:56;;;;;;;6.03;1.60;;;;;;;;;;5013605;28;97175;-76
2022/05/12 20:54:22;;;;;;;6.28;1.67;;;;;;;;;;5011778;28;95683;-76
2022/05/12 20:56:48;;;;;;;10.32;1.92;;;;;;;;;;5012317;28;96733;-76
2022/05/12 20:59:32;;;;;;;5.88;1.50;;;;;;;;;;5009488;28;95549;-76
2022/05/12 21:01:59;;;;;;;5.13;1.60;;;;;;;;;;5011202;28;95291;-76
2022/05/12 21:04:26;;;;;;;3.33;1.40;;;;;;;;;;5010877;28;96805;-76
2022/05/12 21:06:52;;;;;;;5.18;1.70;;;;;;;;;;5011679;28;97515;-75
2022/05/12 21:09:18;;;;;;;5.90;1.50;;;;;;;;;;5005401;28;95680;-75
2022/05/12 21:11:45;;;;;;;7.43;1.70;;;;;;;;;;4991789;28;97214;-75
2022/05/12 21:14:13;;;;;;;5.72;1.63;;;;;;;;;;4992014;28;95580;-75
2022/05/12 21:16:40;;;;;;;6.43;1.83;;;;;;;;;;4991921;28;96768;-75
2022/05/12 21:19:07;;;;;;;7.22;1.63;;;;;;;;;;4992183;28;96033;-75
2022/05/12 21:21:33;;;;;;;5.25;1.70;;;;;;;;;;5008612;28;96034;-75
2022/05/12 21:24:00;;;;;;;6.85;1.67;;;;;;;;;;5011413;28;96906;-75
2022/05/12 21:26:26;;;;;;;5.22;1.63;;;;;;;;;;5011393;28;97565;-76
2022/05/12 21:29:11;;;;;;;4.95;1.60;;;;;;;;;;5011364;28;95390;-75
2022/05/12 21:31:38;;;;;;;6.85;1.77;;;;;;;;;;5014842;28;99421;-75
2022/05/12 21:34:04;;;;;;;11.60;1.73;;;;;;;;;;5012001;28;95757;-75
2022/05/12 21:36:30;;;;;;;6.82;1.85;;;;;;;;;;5010615;28;95772;-76
2022/05/12 21:38:57;;;;;;;11.50;2.00;;;;;;;;;;5010557;28;96373;-75
2022/05/12 21:41:23;;;;;;;10.02;1.63;;;;;;;;;;5011855;28;95693;-75
2022/05/12 21:43:49;;;;;;;4.25;1.67;;;;;;;;;;5011361;28;96730;-75
2022/05/12 21:46:16;;;;;;;8.38;1.75;;;;;;;;;;5011406;28;97623;-76
2022/05/12 21:48:42;;;;;;;13.43;1.95;;;;;;;;;;5011914;28;95924;-75
2022/05/12 21:51:27;;;;;;;7.53;1.67;;;;;;;;;;5010874;28;95805;-75
2022/05/12 21:53:59;;;;;;;3.90;1.52;;;;;;;;;;5012290;28;95443;-75
2022/05/12 21:56:27;;;;;;;6.90;1.50;;;;;;;;;;5011500;28;96854;-75
2022/05/12 22:02:15;;;;;;;5.03;1.50;;;;;;;;;;5005236;28;95263;-76
2022/05/12 22:04:42;;;;;;;6.82;2.15;;;;;;;;;;5010729;28;96729;-76
2022/05/12 22:07:10;;;;;;;6.00;1.67;;;;;;;;;;5009472;28;96320;-76
2022/05/12 22:09:38;;;;;;;8.10;1.75;;;;;;;;;;5010991;28;95348;-76
2022/05/12 22:12:17;;;;;;;7.28;1.80;;;;;;;;;;5010217;28;97127;-76
2022/05/12 22:15:02;;;;;;;7.68;1.70;;;;;;;;;;5012012;28;95604;-75
2022/05/12 22:17:46;;;;;;;9.00;1.75;;;;;;;;;;5008881;28;95596;-76
2022/05/12 22:20:12;;;;;;;7.57;2.13;;;;;;;;;;5010293;28;97349;-76
2022/05/12 22:22:40;;;;;;;6.60;1.70;;;;;;;;;;5010747;28;95637;-75
2022/05/12 22:25:06;;;;;;;3.08;1.50;;;;;;;;;;5010745;28;95754;-76
2022/05/12 22:27:33;;;;;;;7.15;1.75;;;;;;;;;;5009440;28;97362;-76
2022/05/12 22:29:59;;;;;;;7.07;1.80;;;;;;;;;;5010076;28;96531;-76
2022/05/12 22:32:44;;;;;;;5.07;1.65;;;;;;;;;;5009114;28;95554;-77
2022/05/12 22:35:11;;;;;;;10.45;1.80;;;;;;;;;;5010599;28;97421;-76
2022/05/12 22:37:37;;;;;;;10.52;1.63;;;;;;;;;;5013625;28;95388;-75
2022/05/12 22:40:04;;;;;;;7.47;1.77;;;;;;;;;;5009671;28;96991;-77
2022/05/12 22:42:30;;;;;;;6.53;1.70;;;;;;;;;;5010105;28;95956;-75
2022/05/12 22:44:57;;;;;;;5.93;1.75;;;;;;;;;;5010826;28;96915;-75
2022/05/12 22:47:23;;;;;;;9.55;1.83;;;;;;;;;;5010000;28;97012;-76
2022/05/12 22:49:50;;;;;;;6.25;1.70;;;;;;;;;;5010872;28;95279;-75
2022/05/12 22:52:16;;;;;;;9.68;1.75;;;;;;;;;;5009779;28;96049;-76
2022/05/12 22:54:43;;;;;;;7.03;1.60;;;;;;;;;;5009997;28;96118;-76
2022/05/12 22:57:10;;;;;;;8.88;1.90;;;;;;;;;;5010500;28;95717;-76
2022/05/12 22:59:36;;;;;;;5.78;1.70;;;;;;;;;;5011219;28;96908;-76
2022/05/12 23:02:02;;;;;;;7.75;1.90;;;;;;;;;;5009936;28;95989;-78
2022/05/12 23:04:46;;;;;;;9.13;2.55;;;;;;;;;;5010187;28;95241;-77
2022/05/12 23:07:13;;;;;;;4.82;1.67;;;;;;;;;;5010212;28;97343;-75
2022/05/12 23:09:39;;;;;;;6.78;1.33;;;;;;;;;;5009681;28;95531;-75
2022/05/12 23:12:06;;;;;;;6.95;1.67;;;;;;;;;;5010627;28;96701;-76
2022/05/12 23:14:32;;;;;;;6.28;1.55;;;;;;;;;;5010719;28;96735;-76
2022/05/12 23:16:58;;;;;;;5.68;1.40;;;;;;;;;;5010047;28;95399;-75
2022/05/12 23:22:10;;;;;;;6.55;1.60;;;;;;;;;;5011753;28;97344;-76
2022/05/12 23:24:36;;;;;;;6.20;1.58;;;;;;;;;;5009771;28;96697;-76
2022/05/12 23:27:03;;;;;;;4.90;1.98;;;;;;;;;;5010045;28;97397;-76
2022/05/12 23:29:48;;;;;;;8.65;1.80;;;;;;;;;;5009300;28;96309;-75
2022/05/12 23:32:14;;;;;;;6.10;2.00;;;;;;;;;;5008528;28;97065;-75
2022/05/12 23:34:40;;;;;;;7.93;2.25;;;;;;;;;;5009637;28;97579;-75
2022/05/12 23:37:07;;;;;;;5.07;1.60;;;;;;;;;;5009808;28;95852;-74
2022/05/12 23:39:51;;;;;;;8.07;1.50;;;;;;;;;;5008252;28;95887;-74
2022/05/12 23:42:18;;;;;;;5.18;1.55;;;;;;;;;;5009400;28;97146;-75
2022/05/12 23:44:45;;;;;;;8.35;1.60;;;;;;;;;;5011716;28;96137;-76
2022/05/12 23:47:12;;;;;;;7.30;1.58;;;;;;;;;;5008641;28;97663;-76
2022/05/12 23:49:56;;;;;;;8.95;2.05;;;;;;;;;;5007952;28;95757;-76
2022/05/12 23:55:08;;;;;;;7.07;1.90;;;;;;;;;;5009267;28;97681;-76
2022/05/12 23:57:34;;;;;;;6.13;1.73;;;;;;;;;;5008164;28;95385;-75
